createdAt,value
2023-05-04T00:01:06.024Z,32.00
2023-05-04T00:03:34.001Z,31.10
2023-05-04T00:06:02.032Z,28.20
2023-05-04T00:08:31.530Z,25.40
2023-05-04T00:10:59.400Z,25.10
2023-05-04T00:13:27.103Z,24.70
2023-05-04T00:15:58.003Z,27.70
2023-05-04T00:18:25.885Z,24.70
2023-05-04T00:20:54.210Z,22.20
2023-05-04T00:23:22.021Z,21.80
2023-05-04T00:25:49.973Z,23.30
2023-05-04T00:28:18.111Z,23.30
2023-05-04T00:30:48.365Z,23.80
2023-05-04T00:33:16.186Z,24.20
2023-05-04T00:35:44.024Z,25.30
2023-05-04T00:38:13.246Z,27.60
2023-05-04T00:40:41.170Z,24.90
2023-05-04T00:43:09.229Z,26.10
2023-05-04T00:45:37.733Z,26.70
2023-05-04T00:48:06.459Z,31.80
2023-05-04T00:50:44.092Z,31.20
2023-05-04T00:53:12.339Z,31.30
2023-05-04T00:55:43.142Z,27.80
2023-05-04T00:58:11.665Z,26.20
2023-05-04T01:00:39.493Z,23.10
2023-05-04T01:03:09.505Z,22.70
2023-05-04T01:05:39.050Z,23.00
2023-05-04T01:08:17.991Z,22.00
2023-05-04T01:10:58.175Z,21.80
2023-05-04T01:13:26.380Z,21.10
2023-05-04T01:15:54.668Z,21.90
2023-05-04T01:18:23.524Z,22.90
2023-05-04T01:20:51.641Z,21.10
2023-05-04T01:23:19.654Z,22.10
2023-05-04T01:25:53.624Z,21.10
2023-05-04T01:28:26.970Z,20.80
2023-05-04T01:30:56.389Z,21.60
2023-05-04T01:33:24.499Z,22.40
2023-05-04T01:35:52.388Z,22.40
2023-05-04T01:38:20.425Z,22.90
2023-05-04T01:40:48.350Z,20.50
2023-05-04T01:43:16.341Z,20.10
2023-05-04T01:45:44.059Z,19.90
2023-05-04T01:48:11.963Z,19.90
2023-05-04T01:50:39.813Z,21.00
2023-05-04T01:53:16.657Z,20.90
2023-05-04T01:55:51.958Z,20.50
2023-05-04T01:58:19.916Z,20.40
2023-05-04T02:00:47.913Z,20.40
2023-05-04T02:03:15.838Z,19.30
2023-05-04T02:05:43.617Z,18.90
2023-05-04T02:08:11.582Z,19.10
2023-05-04T02:10:39.380Z,20.10
2023-05-04T02:13:07.258Z,20.90
2023-05-04T02:15:34.992Z,20.40
2023-05-04T02:18:03.093Z,20.20
2023-05-04T02:20:34.123Z,20.00
2023-05-04T02:23:02.090Z,19.80
2023-05-04T02:25:30.679Z,19.40
2023-05-04T02:27:58.616Z,18.90
2023-05-04T02:30:26.832Z,20.50
2023-05-04T02:32:57.010Z,27.40
2023-05-04T02:35:24.962Z,25.90
2023-05-04T02:37:52.908Z,22.80
2023-05-04T02:40:20.728Z,21.20
2023-05-04T02:42:48.616Z,20.70
2023-05-04T02:45:16.684Z,20.00
2023-05-04T02:47:44.513Z,21.40
2023-05-04T02:50:12.293Z,20.60
2023-05-04T02:52:40.109Z,20.10
2023-05-04T02:55:08.112Z,20.80
2023-05-04T02:57:35.962Z,21.90
2023-05-04T03:00:07.181Z,21.70
2023-05-04T03:02:35.331Z,21.40
2023-05-04T03:05:03.314Z,20.00
2023-05-04T03:07:31.645Z,20.90
2023-05-04T03:10:02.417Z,19.40
2023-05-04T03:12:30.350Z,20.30
2023-05-04T03:15:00.805Z,20.40
2023-05-04T03:17:38.897Z,20.70
2023-05-04T03:20:08.130Z,22.90
2023-05-04T03:22:36.470Z,34.20
2023-05-04T03:25:04.729Z,43.80
2023-05-04T03:27:32.779Z,53.90
2023-05-04T03:30:00.795Z,58.50
2023-05-04T03:32:35.977Z,64.10
2023-05-04T03:35:09.608Z,67.40
2023-05-04T03:37:39.860Z,62.90
2023-05-04T03:40:08.109Z,64.00
2023-05-04T03:42:38.167Z,61.20
2023-05-04T03:45:06.374Z,60.00
2023-05-04T03:47:54.540Z,58.60
2023-05-04T03:50:22.888Z,51.80
2023-05-04T03:52:53.206Z,39.40
2023-05-04T03:55:21.299Z,41.70
2023-05-04T03:57:49.230Z,35.60
2023-05-04T04:00:17.349Z,34.10
2023-05-04T04:02:45.362Z,34.20
2023-05-04T04:05:22.404Z,33.60
2023-05-04T04:07:53.307Z,36.70
2023-05-04T04:10:21.110Z,36.30
2023-05-04T04:12:49.986Z,36.00
2023-05-04T04:15:17.835Z,32.10
2023-05-04T04:17:45.792Z,27.20
2023-05-04T04:20:19.428Z,27.20
2023-05-04T04:22:47.728Z,27.20
2023-05-04T04:25:18.729Z,27.80
2023-05-04T04:27:46.654Z,27.20
2023-05-04T04:30:14.740Z,26.70
2023-05-04T04:32:42.814Z,27.70
2023-05-04T04:35:11.113Z,26.80
2023-05-04T04:37:39.159Z,27.10
2023-05-04T04:40:07.972Z,25.10
2023-05-04T04:42:35.826Z,24.40
2023-05-04T04:45:06.102Z,25.60
2023-05-04T04:47:34.125Z,26.60
2023-05-04T04:50:03.631Z,27.40
2023-05-04T04:52:32.659Z,27.20
2023-05-04T04:55:00.645Z,25.50
2023-05-04T04:57:31.235Z,25.80
2023-05-04T05:00:01.009Z,26.40
2023-05-04T05:02:28.882Z,25.20
2023-05-04T05:05:00.740Z,25.30
2023-05-04T05:07:28.716Z,26.50
2023-05-04T05:09:59.886Z,24.50
2023-05-04T05:12:27.869Z,25.30
2023-05-04T05:14:55.608Z,25.40
2023-05-04T05:17:23.465Z,24.60
2023-05-04T05:19:59.467Z,25.40
2023-05-04T05:22:28.198Z,23.50
2023-05-04T05:24:55.941Z,23.60
2023-05-04T05:27:23.772Z,24.60
2023-05-04T05:29:54.019Z,28.30
2023-05-04T05:32:22.189Z,31.50
2023-05-04T05:34:50.613Z,31.00
2023-05-04T05:37:18.563Z,29.80
2023-05-04T05:39:46.453Z,27.60
2023-05-04T05:42:14.667Z,27.90
2023-05-04T05:44:42.422Z,19.10
2023-05-04T05:47:10.378Z,18.10
2023-05-04T05:49:38.276Z,16.50
2023-05-04T05:52:08.989Z,14.80
2023-05-04T05:54:37.017Z,12.80
2023-05-04T05:57:04.826Z,12.40
2023-05-04T05:59:32.855Z,12.10
2023-05-04T06:02:00.745Z,12.10
2023-05-04T06:04:28.783Z,11.40
2023-05-04T06:06:56.708Z,10.20
2023-05-04T06:09:27.934Z,9.70
2023-05-04T06:11:55.875Z,9.60
2023-05-04T06:14:24.020Z,9.40
2023-05-04T06:16:51.866Z,9.40
2023-05-04T06:19:19.890Z,8.40
2023-05-04T06:21:48.825Z,8.50
2023-05-04T06:24:16.678Z,8.70
2023-05-04T06:26:44.465Z,8.20
2023-05-04T06:29:12.435Z,9.10
2023-05-04T06:31:41.977Z,8.70
2023-05-04T06:34:09.922Z,8.60
2023-05-04T06:36:37.653Z,9.00
2023-05-04T06:39:05.491Z,8.50
2023-05-04T06:41:33.295Z,9.70
2023-05-04T06:44:01.707Z,9.30
2023-05-04T06:46:33.857Z,10.60
2023-05-04T06:49:01.873Z,11.00
2023-05-04T06:51:30.086Z,10.20
2023-05-04T06:53:58.024Z,10.50
2023-05-04T06:56:26.066Z,7.80
2023-05-04T06:58:54.295Z,8.60
2023-05-04T07:01:22.242Z,7.30
2023-05-04T07:03:50.564Z,8.50
2023-05-04T07:06:18.678Z,5.20
2023-05-04T07:08:46.494Z,6.30
2023-05-04T07:11:14.419Z,4.00
2023-05-04T07:13:42.259Z,3.00
2023-05-04T07:16:10.137Z,3.70
2023-05-04T07:18:39.071Z,2.70
2023-05-04T07:21:26.968Z,3.10
2023-05-04T07:23:56.867Z,4.60
2023-05-04T07:26:24.714Z,4.00
2023-05-04T07:28:52.604Z,3.90
2023-05-04T07:31:20.435Z,3.80
2023-05-04T07:33:48.682Z,3.30
2023-05-04T07:36:16.606Z,3.70
2023-05-04T07:38:44.436Z,4.10
2023-05-04T07:41:12.449Z,3.80
2023-05-04T07:43:40.169Z,3.20
2023-05-04T07:46:08.030Z,2.90
2023-05-04T07:48:35.890Z,2.40
2023-05-04T07:51:03.885Z,2.20
2023-05-04T07:53:31.648Z,3.00
2023-05-04T07:56:07.630Z,2.60
2023-05-04T07:58:35.649Z,2.30
2023-05-04T08:01:04.183Z,2.70
2023-05-04T08:03:32.291Z,2.60
2023-05-04T08:06:00.129Z,2.90
2023-05-04T08:08:28.019Z,2.80
2023-05-04T08:11:02.012Z,2.60
2023-05-04T08:13:36.142Z,2.80
2023-05-04T08:16:03.977Z,2.50
2023-05-04T08:18:31.725Z,2.80
2023-05-04T08:20:59.586Z,3.20
2023-05-04T08:23:27.569Z,3.10
2023-05-04T08:25:55.383Z,2.90
2023-05-04T08:28:23.687Z,2.40
2023-05-04T08:30:51.485Z,3.00
2023-05-04T08:33:19.925Z,2.80
2023-05-04T08:35:47.917Z,2.40
2023-05-04T08:38:15.722Z,2.50
2023-05-04T08:40:43.662Z,2.30
2023-05-04T08:43:11.572Z,2.10
2023-05-04T08:45:39.842Z,3.00
2023-05-04T08:48:08.711Z,3.40
2023-05-04T08:50:37.412Z,2.40
2023-05-04T08:53:11.929Z,2.60
2023-05-04T08:55:41.515Z,2.20
2023-05-04T08:58:13.074Z,2.40
2023-05-04T09:00:41.306Z,2.30
2023-05-04T09:03:10.518Z,2.20
2023-05-04T09:05:38.934Z,2.70
2023-05-04T09:08:09.354Z,2.30
2023-05-04T09:10:37.164Z,3.00
2023-05-04T09:13:04.963Z,2.20
2023-05-04T09:15:33.126Z,2.30
2023-05-04T09:18:04.675Z,2.50
2023-05-04T09:20:43.151Z,1.90
2023-05-04T09:23:11.744Z,2.60
2023-05-04T09:25:54.909Z,2.50
2023-05-04T09:28:43.607Z,2.60
2023-05-04T09:31:11.975Z,2.20
2023-05-04T09:33:39.894Z,2.30
2023-05-04T09:36:18.636Z,2.30
2023-05-04T09:38:46.713Z,2.20
2023-05-04T09:41:14.535Z,2.20
2023-05-04T09:43:43.746Z,2.00
2023-05-04T09:46:18.502Z,2.30
2023-05-04T09:48:59.210Z,2.00
2023-05-04T09:51:29.769Z,1.90
2023-05-04T09:54:01.459Z,2.30
2023-05-04T09:56:39.023Z,2.40
2023-05-04T09:59:06.961Z,2.10
2023-05-04T10:01:35.026Z,1.70
2023-05-04T10:04:04.108Z,1.80
2023-05-04T10:06:33.035Z,2.10
2023-05-04T10:09:00.855Z,1.80
2023-05-04T10:11:28.759Z,2.00
2023-05-04T10:13:59.443Z,1.80
2023-05-04T10:16:33.109Z,2.20
2023-05-04T10:19:00.937Z,2.20
2023-05-04T10:21:35.909Z,2.20
2023-05-04T10:24:16.117Z,2.30
2023-05-04T10:26:55.211Z,1.80
2023-05-04T10:29:24.969Z,2.30
2023-05-04T10:31:53.618Z,2.00
2023-05-04T10:34:29.466Z,2.20
2023-05-04T10:36:58.934Z,2.10
2023-05-04T10:39:27.810Z,2.20
2023-05-04T10:42:05.517Z,2.40
2023-05-04T10:44:37.426Z,2.10
2023-05-04T10:47:06.831Z,2.10
2023-05-04T10:49:35.643Z,2.00
2023-05-04T10:52:16.161Z,2.20
2023-05-04T10:54:44.513Z,2.30
2023-05-04T10:57:13.743Z,2.20
2023-05-04T10:59:41.789Z,2.50
2023-05-04T11:02:09.739Z,1.90
2023-05-04T11:04:38.210Z,2.40
2023-05-04T11:07:06.783Z,2.00
2023-05-04T11:09:41.639Z,2.20
2023-05-04T11:12:12.321Z,2.10
2023-05-04T11:14:43.544Z,2.10
2023-05-04T11:19:50.886Z,2.10
2023-05-04T11:22:19.014Z,2.30
2023-05-04T11:24:48.773Z,2.30
2023-05-04T11:27:23.933Z,2.30
2023-05-04T11:29:57.884Z,2.40
2023-05-04T11:32:49.779Z,2.20
2023-05-04T11:35:18.796Z,2.20
2023-05-04T11:37:47.528Z,3.30
2023-05-04T11:40:19.925Z,2.20
2023-05-04T11:42:49.978Z,2.20
2023-05-04T11:45:29.840Z,2.10
2023-05-04T11:47:58.651Z,2.00
2023-05-04T11:50:26.983Z,2.30
2023-05-04T11:53:13.921Z,2.40
2023-05-04T11:55:42.268Z,2.60
2023-05-04T11:58:10.775Z,2.20
2023-05-04T12:00:40.034Z,2.00
2023-05-04T12:03:09.307Z,2.40
2023-05-04T12:05:37.457Z,2.20
2023-05-04T12:08:07.324Z,2.30
2023-05-04T12:10:35.405Z,2.00
2023-05-04T12:13:03.222Z,2.10
2023-05-04T12:15:31.894Z,2.20
2023-05-04T12:18:02.294Z,2.10
2023-05-04T12:20:31.164Z,2.10
2023-05-04T12:23:05.358Z,2.60
2023-05-04T12:25:33.600Z,2.20
2023-05-04T12:28:03.160Z,1.80
2023-05-04T12:30:31.916Z,2.10
2023-05-04T12:32:59.785Z,2.20
2023-05-04T12:35:27.889Z,2.40
2023-05-04T12:37:55.679Z,2.10
2023-05-04T12:40:28.574Z,1.80
2023-05-04T12:42:56.942Z,2.40
2023-05-04T12:45:24.968Z,2.00
2023-05-04T12:47:52.799Z,2.00
2023-05-04T12:50:20.644Z,2.00
2023-05-04T12:52:48.434Z,2.40
2023-05-04T12:55:16.165Z,2.10
2023-05-04T12:57:47.312Z,2.30
2023-05-04T13:00:15.244Z,2.30
2023-05-04T13:02:42.988Z,2.00
2023-05-04T13:05:10.803Z,2.10
2023-05-04T13:07:38.566Z,2.30
2023-05-04T13:10:06.522Z,2.00
2023-05-04T13:12:34.458Z,2.20
2023-05-04T13:15:02.290Z,2.20
2023-05-04T13:17:33.925Z,2.00
2023-05-04T13:20:01.991Z,1.90
2023-05-04T13:22:29.820Z,2.00
2023-05-04T13:24:57.682Z,1.80
2023-05-04T13:27:25.527Z,2.20
2023-05-04T13:29:53.713Z,1.80
2023-05-04T13:32:21.595Z,2.10
2023-05-04T13:34:49.436Z,1.80
2023-05-04T13:37:18.552Z,2.70
2023-05-04T13:39:46.813Z,1.90
2023-05-04T13:42:14.828Z,2.20
2023-05-04T13:44:45.200Z,2.50
2023-05-04T13:47:13.430Z,2.10
2023-05-04T13:49:41.364Z,1.90
2023-05-04T13:52:09.349Z,2.30
2023-05-04T13:54:37.479Z,2.00
2023-05-04T13:57:05.242Z,2.20
2023-05-04T13:59:33.241Z,1.90
2023-05-04T14:02:01.444Z,1.70
2023-05-04T14:04:29.651Z,2.50
2023-05-04T14:06:57.839Z,2.00
2023-05-04T14:09:26.016Z,2.20
2023-05-04T14:11:54.057Z,2.30
2023-05-04T14:14:22.355Z,2.90
2023-05-04T14:16:50.216Z,1.70
2023-05-04T14:19:18.168Z,2.00
2023-05-04T14:21:46.855Z,2.20
2023-05-04T14:24:14.729Z,1.90
2023-05-04T14:26:42.496Z,1.80
2023-05-04T14:29:10.263Z,1.90
2023-05-04T14:31:38.080Z,2.10
2023-05-04T14:34:06.897Z,2.10
2023-05-04T14:36:34.672Z,2.20
2023-05-04T14:39:03.709Z,2.30
2023-05-04T14:41:37.167Z,2.00
2023-05-04T14:44:05.637Z,2.10
2023-05-04T14:46:33.448Z,2.00
2023-05-04T14:49:01.716Z,2.00
2023-05-04T14:51:33.872Z,2.40
2023-05-04T14:54:02.125Z,2.00
2023-05-04T14:56:30.041Z,2.10
2023-05-04T14:58:58.985Z,2.90
2023-05-04T15:01:26.782Z,2.30
2023-05-04T15:03:56.423Z,2.10
2023-05-04T15:06:24.439Z,2.50
2023-05-04T15:08:52.507Z,2.10
2023-05-04T15:11:20.462Z,2.00
2023-05-04T15:13:48.369Z,1.90
2023-05-04T15:16:17.829Z,2.10
2023-05-04T15:18:45.644Z,2.40
2023-05-04T15:21:13.428Z,2.20
2023-05-04T15:23:41.124Z,1.90
2023-05-04T15:26:08.870Z,1.90
2023-05-04T15:28:36.750Z,1.90
2023-05-04T15:31:07.368Z,2.00
2023-05-04T15:33:35.280Z,2.10
2023-05-04T15:36:07.975Z,2.20
2023-05-04T15:38:36.543Z,1.70
2023-05-04T15:41:05.896Z,1.90
2023-05-04T15:43:34.190Z,1.80
2023-05-04T15:46:02.225Z,2.30
2023-05-04T15:48:29.967Z,2.10
2023-05-04T15:50:57.711Z,2.30
2023-05-04T15:53:25.668Z,2.00
2023-05-04T15:55:53.413Z,2.70
2023-05-04T15:58:21.596Z,1.80
2023-05-04T16:00:49.818Z,2.30
2023-05-04T16:03:17.753Z,2.00
2023-05-04T16:05:46.048Z,2.20
2023-05-04T16:08:13.811Z,2.00
2023-05-04T16:10:41.583Z,2.90
2023-05-04T16:13:11.462Z,2.30
2023-05-04T16:15:39.970Z,2.30
2023-05-04T16:18:08.009Z,2.30
2023-05-04T16:20:35.919Z,2.10
2023-05-04T16:23:03.660Z,1.60
2023-05-04T16:25:31.566Z,2.50
2023-05-04T16:27:59.565Z,2.30
2023-05-04T16:30:32.305Z,2.60
2023-05-04T16:33:00.795Z,2.70
2023-05-04T16:35:29.970Z,2.50
2023-05-04T16:37:58.513Z,2.00
2023-05-04T16:40:26.656Z,2.10
2023-05-04T16:42:54.381Z,1.70
2023-05-04T16:45:24.861Z,1.90
2023-05-04T16:47:52.822Z,2.40
2023-05-04T16:50:20.673Z,2.70
2023-05-04T16:52:48.553Z,3.00
2023-05-04T16:55:16.401Z,2.40
2023-05-04T16:57:44.140Z,2.50
2023-05-04T17:00:13.526Z,1.90
2023-05-04T17:02:41.459Z,2.40
2023-05-04T17:05:12.439Z,1.90
2023-05-04T17:07:43.567Z,1.80
2023-05-04T17:10:12.135Z,2.30
2023-05-04T17:12:40.516Z,1.90
2023-05-04T17:15:09.424Z,2.60
2023-05-04T17:17:37.206Z,2.60
2023-05-04T17:20:05.673Z,2.20
2023-05-04T17:22:33.722Z,1.90
2023-05-04T17:25:01.614Z,2.10
2023-05-04T17:27:29.479Z,3.00
2023-05-04T17:29:57.320Z,2.80
2023-05-04T17:32:25.288Z,2.50
2023-05-04T17:34:53.259Z,2.70
2023-05-04T17:37:21.139Z,2.30
2023-05-04T17:39:48.986Z,3.30
2023-05-04T17:42:16.781Z,3.10
2023-05-04T17:44:44.908Z,3.20
2023-05-04T17:47:12.784Z,3.40
2023-05-04T17:49:40.937Z,2.60
2023-05-04T17:52:09.027Z,2.70
2023-05-04T17:54:37.109Z,2.10
2023-05-04T17:57:05.357Z,2.30
2023-05-04T17:59:33.225Z,2.90
2023-05-04T18:02:01.094Z,3.50
2023-05-04T18:04:32.194Z,5.50
2023-05-04T18:06:59.936Z,5.80
2023-05-04T18:09:27.765Z,5.60
2023-05-04T18:11:55.771Z,5.50
2023-05-04T18:14:23.570Z,7.30
2023-05-04T18:16:51.685Z,21.90
2023-05-04T18:19:24.245Z,25.10
2023-05-04T18:21:52.082Z,15.00
2023-05-04T18:24:20.125Z,6.80
2023-05-04T18:26:48.831Z,11.70
2023-05-04T18:29:19.383Z,12.80
2023-05-04T18:31:47.660Z,10.50
2023-05-04T18:34:15.505Z,13.70
2023-05-04T18:36:43.305Z,14.60
2023-05-04T18:39:11.073Z,14.60
2023-05-04T18:41:39.085Z,15.70
2023-05-04T18:44:09.157Z,17.40
2023-05-04T18:46:37.358Z,15.30
2023-05-04T18:49:05.123Z,25.50
2023-05-04T18:51:33.517Z,28.00
2023-05-04T18:54:01.452Z,18.50
2023-05-04T18:56:29.146Z,23.00
2023-05-04T18:58:56.963Z,31.20
2023-05-04T19:01:24.906Z,28.10
2023-05-04T19:03:53.076Z,39.50
2023-05-04T19:06:23.588Z,43.60
2023-05-04T19:08:52.131Z,42.40
2023-05-04T19:11:20.265Z,40.50
2023-05-04T19:13:49.851Z,33.80
2023-05-04T19:16:18.213Z,17.90
2023-05-04T19:18:46.442Z,7.60
2023-05-04T19:21:14.501Z,5.70
2023-05-04T19:23:42.414Z,4.90
2023-05-04T19:26:10.128Z,5.30
2023-05-04T19:28:40.979Z,7.80
2023-05-04T19:31:08.827Z,11.40
2023-05-04T19:33:47.752Z,12.90
2023-05-04T19:36:17.116Z,16.00
2023-05-04T19:38:45.273Z,17.90
2023-05-04T19:41:14.033Z,27.60
2023-05-04T19:43:42.729Z,28.30
2023-05-04T19:46:10.596Z,28.50
2023-05-04T19:48:38.687Z,28.70
2023-05-04T19:51:06.608Z,28.70
2023-05-04T19:53:34.571Z,29.00
2023-05-04T19:56:02.383Z,26.20
2023-05-04T19:58:30.949Z,23.40
2023-05-04T20:00:58.866Z,24.20
2023-05-04T20:03:26.915Z,29.80
2023-05-04T20:05:55.625Z,28.00
2023-05-04T20:08:23.279Z,32.40
2023-05-04T20:10:51.109Z,35.30
2023-05-04T20:13:18.883Z,35.50
2023-05-04T20:15:46.974Z,32.20
2023-05-04T20:18:15.386Z,25.70
2023-05-04T20:20:43.477Z,24.20
2023-05-04T20:23:11.413Z,23.80
2023-05-04T20:25:39.313Z,21.80
2023-05-04T20:28:07.087Z,21.40
2023-05-04T20:30:34.885Z,20.30
2023-05-04T20:33:03.277Z,20.10
2023-05-04T20:35:31.675Z,19.80
2023-05-04T20:37:59.588Z,19.10
2023-05-04T20:40:27.346Z,19.30
2023-05-04T20:42:55.057Z,17.40
2023-05-04T20:45:22.851Z,18.30
2023-05-04T20:47:50.919Z,18.70
2023-05-04T20:50:20.405Z,18.20
2023-05-04T20:52:48.244Z,16.90
2023-05-04T20:55:16.921Z,19.90
2023-05-04T20:57:45.000Z,19.50
2023-05-04T21:00:13.230Z,21.60
2023-05-04T21:02:41.693Z,21.40
2023-05-04T21:05:09.628Z,21.80
2023-05-04T21:07:37.373Z,19.80
2023-05-04T21:10:05.494Z,22.30
2023-05-04T21:12:33.508Z,19.20
2023-05-04T21:15:01.426Z,21.00
2023-05-04T21:17:29.306Z,22.40
2023-05-04T21:19:57.591Z,20.40
2023-05-04T21:22:25.515Z,19.30
2023-05-04T21:24:53.604Z,16.90
2023-05-04T21:27:21.624Z,15.70
2023-05-04T21:29:49.452Z,16.50
2023-05-04T21:32:17.467Z,16.90
2023-05-04T21:34:53.069Z,18.00
2023-05-04T21:37:21.124Z,17.90
2023-05-04T21:39:53.170Z,17.70
2023-05-04T21:42:20.934Z,19.10
2023-05-04T21:44:55.412Z,18.80
2023-05-04T21:47:23.645Z,20.60
2023-05-04T21:49:54.112Z,24.40
2023-05-04T21:52:22.160Z,25.00
2023-05-04T21:54:50.269Z,27.90
2023-05-04T21:57:18.080Z,28.10
2023-05-04T21:59:49.757Z,25.80
2023-05-04T22:02:17.950Z,24.40
2023-05-04T22:04:45.873Z,24.10
2023-05-04T22:07:13.653Z,23.40
2023-05-04T22:09:41.556Z,25.10
2023-05-04T22:12:09.797Z,24.30
2023-05-04T22:14:42.460Z,23.90
2023-05-04T22:17:10.470Z,23.60
2023-05-04T22:19:38.452Z,22.30
2023-05-04T22:22:06.408Z,21.80
2023-05-04T22:24:34.152Z,20.30
2023-05-04T22:27:01.841Z,20.80
2023-05-04T22:29:29.653Z,18.40
2023-05-04T22:31:57.349Z,16.10
2023-05-04T22:34:25.047Z,14.30
2023-05-04T22:36:52.859Z,14.20
2023-05-04T22:39:22.120Z,15.10
2023-05-04T22:41:49.902Z,14.90
2023-05-04T22:44:17.605Z,14.10
2023-05-04T22:46:45.452Z,13.70
2023-05-04T22:49:13.591Z,14.30
2023-05-04T22:51:41.368Z,14.70
2023-05-04T22:54:09.803Z,13.80
2023-05-04T22:56:37.717Z,12.00
2023-05-04T22:59:06.401Z,13.10
2023-05-04T23:01:34.399Z,13.30
2023-05-04T23:04:02.152Z,12.80
2023-05-04T23:06:30.018Z,11.60
2023-05-04T23:08:58.069Z,12.60
2023-05-04T23:11:25.819Z,9.90
2023-05-04T23:13:53.618Z,10.30
2023-05-04T23:16:21.626Z,9.30
2023-05-04T23:18:49.451Z,9.00
2023-05-04T23:21:17.329Z,8.60
2023-05-04T23:23:45.202Z,9.70
2023-05-04T23:26:12.928Z,9.60
2023-05-04T23:28:40.796Z,10.30
2023-05-04T23:31:08.793Z,12.50
2023-05-04T23:33:36.698Z,14.20
2023-05-04T23:36:07.814Z,13.90
2023-05-04T23:38:35.487Z,14.40
2023-05-04T23:41:04.224Z,13.60
2023-05-04T23:43:32.104Z,14.30
2023-05-04T23:46:01.107Z,14.40
2023-05-04T23:48:29.595Z,13.60
2023-05-04T23:50:58.569Z,12.00
2023-05-04T23:53:26.428Z,11.00
2023-05-04T23:56:03.574Z,10.60
2023-05-04T23:58:32.943Z,10.10
